sensor_id;sensor_type;location;lat;lon;timestamp;P1;durP1;ratioP1;P2;durP2;ratioP2
7487;SDS011;3785;52.260;4.728;2023-06-14T00:01:53;2.55;;;1.65;;
7487;SDS011;3785;52.260;4.728;2023-06-14T00:05:13;2.60;;;1.70;;
7487;SDS011;3785;52.260;4.728;2023-06-14T00:08:34;3.58;;;1.88;;
7487;SDS011;3785;52.260;4.728;2023-06-14T00:11:55;2.83;;;1.67;;
7487;SDS011;3785;52.260;4.728;2023-06-14T00:15:15;2.10;;;1.33;;
7487;SDS011;3785;52.260;4.728;2023-06-14T00:18:36;2.40;;;1.65;;
7487;SDS011;3785;52.260;4.728;2023-06-14T00:21:56;5.47;;;1.92;;
7487;SDS011;3785;52.260;4.728;2023-06-14T00:25:17;2.33;;;1.52;;
7487;SDS011;3785;52.260;4.728;2023-06-14T00:28:38;4.03;;;1.52;;
7487;SDS011;3785;52.260;4.728;2023-06-14T00:31:58;3.05;;;1.50;;
7487;SDS011;3785;52.260;4.728;2023-06-14T00:35:19;3.95;;;1.60;;
7487;SDS011;3785;52.260;4.728;2023-06-14T00:38:40;3.53;;;1.50;;
7487;SDS011;3785;52.260;4.728;2023-06-14T00:42:00;4.25;;;1.67;;
7487;SDS011;3785;52.260;4.728;2023-06-14T00:45:21;2.80;;;1.58;;
7487;SDS011;3785;52.260;4.728;2023-06-14T00:48:42;2.60;;;1.45;;
7487;SDS011;3785;52.260;4.728;2023-06-14T00:52:02;2.70;;;1.52;;
7487;SDS011;3785;52.260;4.728;2023-06-14T00:55:23;2.95;;;1.50;;
7487;SDS011;3785;52.260;4.728;2023-06-14T00:58:44;4.25;;;1.83;;
7487;SDS011;3785;52.260;4.728;2023-06-14T01:02:05;2.65;;;1.40;;
7487;SDS011;3785;52.260;4.728;2023-06-14T01:05:25;3.25;;;1.45;;
7487;SDS011;3785;52.260;4.728;2023-06-14T01:08:50;3.80;;;1.33;;
7487;SDS011;3785;52.260;4.728;2023-06-14T01:12:13;3.17;;;1.65;;
7487;SDS011;3785;52.260;4.728;2023-06-14T01:15:38;4.38;;;1.70;;
7487;SDS011;3785;52.260;4.728;2023-06-14T01:18:59;3.40;;;1.85;;
7487;SDS011;3785;52.260;4.728;2023-06-14T01:22:22;4.07;;;1.90;;
7487;SDS011;3785;52.260;4.728;2023-06-14T01:25:42;6.13;;;1.50;;
7487;SDS011;3785;52.260;4.728;2023-06-14T01:29:04;3.80;;;1.73;;
7487;SDS011;3785;52.260;4.728;2023-06-14T01:32:26;2.20;;;1.50;;
7487;SDS011;3785;52.260;4.728;2023-06-14T01:35:49;3.10;;;1.70;;
7487;SDS011;3785;52.260;4.728;2023-06-14T01:39:12;5.32;;;1.52;;
7487;SDS011;3785;52.260;4.728;2023-06-14T01:42:34;3.05;;;1.60;;
7487;SDS011;3785;52.260;4.728;2023-06-14T01:45:57;2.92;;;1.15;;
7487;SDS011;3785;52.260;4.728;2023-06-14T01:49:18;2.60;;;1.42;;
7487;SDS011;3785;52.260;4.728;2023-06-14T01:52:39;2.90;;;1.50;;
7487;SDS011;3785;52.260;4.728;2023-06-14T01:55:59;2.33;;;1.42;;
7487;SDS011;3785;52.260;4.728;2023-06-14T01:59:21;2.50;;;1.60;;
7487;SDS011;3785;52.260;4.728;2023-06-14T02:02:41;3.65;;;1.55;;
7487;SDS011;3785;52.260;4.728;2023-06-14T02:06:02;2.03;;;1.38;;
7487;SDS011;3785;52.260;4.728;2023-06-14T02:09:23;1.83;;;1.08;;
7487;SDS011;3785;52.260;4.728;2023-06-14T02:12:44;2.08;;;1.33;;
7487;SDS011;3785;52.260;4.728;2023-06-14T02:16:04;3.10;;;1.60;;
7487;SDS011;3785;52.260;4.728;2023-06-14T02:19:25;6.35;;;1.55;;
7487;SDS011;3785;52.260;4.728;2023-06-14T02:22:46;2.78;;;1.50;;
7487;SDS011;3785;52.260;4.728;2023-06-14T02:26:07;2.70;;;1.40;;
7487;SDS011;3785;52.260;4.728;2023-06-14T02:29:27;2.42;;;1.25;;
7487;SDS011;3785;52.260;4.728;2023-06-14T02:32:48;2.60;;;1.50;;
7487;SDS011;3785;52.260;4.728;2023-06-14T02:36:11;2.58;;;1.58;;
7487;SDS011;3785;52.260;4.728;2023-06-14T02:39:31;1.70;;;1.30;;
7487;SDS011;3785;52.260;4.728;2023-06-14T02:42:52;4.65;;;1.90;;
7487;SDS011;3785;52.260;4.728;2023-06-14T02:46:12;2.80;;;1.25;;
7487;SDS011;3785;52.260;4.728;2023-06-14T02:49:33;1.92;;;1.20;;
7487;SDS011;3785;52.260;4.728;2023-06-14T02:52:53;2.22;;;1.30;;
7487;SDS011;3785;52.260;4.728;2023-06-14T02:56:16;2.33;;;1.55;;
7487;SDS011;3785;52.260;4.728;2023-06-14T02:59:37;2.65;;;1.40;;
7487;SDS011;3785;52.260;4.728;2023-06-14T03:02:58;2.67;;;1.50;;
7487;SDS011;3785;52.260;4.728;2023-06-14T03:06:21;2.53;;;1.42;;
7487;SDS011;3785;52.260;4.728;2023-06-14T03:09:45;3.30;;;1.77;;
7487;SDS011;3785;52.260;4.728;2023-06-14T03:13:05;4.95;;;1.45;;
7487;SDS011;3785;52.260;4.728;2023-06-14T03:16:26;2.60;;;1.20;;
7487;SDS011;3785;52.260;4.728;2023-06-14T03:19:48;3.28;;;1.60;;
7487;SDS011;3785;52.260;4.728;2023-06-14T03:23:09;1.80;;;1.15;;
7487;SDS011;3785;52.260;4.728;2023-06-14T03:26:30;3.45;;;1.40;;
7487;SDS011;3785;52.260;4.728;2023-06-14T03:29:51;2.10;;;1.58;;
7487;SDS011;3785;52.260;4.728;2023-06-14T03:33:11;1.92;;;1.23;;
7487;SDS011;3785;52.260;4.728;2023-06-14T03:36:32;2.70;;;1.60;;
7487;SDS011;3785;52.260;4.728;2023-06-14T03:39:53;7.85;;;1.67;;
7487;SDS011;3785;52.260;4.728;2023-06-14T03:43:14;2.08;;;1.40;;
7487;SDS011;3785;52.260;4.728;2023-06-14T03:46:34;2.33;;;1.30;;
7487;SDS011;3785;52.260;4.728;2023-06-14T03:49:55;3.88;;;1.40;;
7487;SDS011;3785;52.260;4.728;2023-06-14T03:53:16;2.92;;;1.30;;
7487;SDS011;3785;52.260;4.728;2023-06-14T03:56:36;1.85;;;1.25;;
7487;SDS011;3785;52.260;4.728;2023-06-14T03:59:57;4.53;;;1.60;;
7487;SDS011;3785;52.260;4.728;2023-06-14T04:03:17;1.92;;;1.40;;
7487;SDS011;3785;52.260;4.728;2023-06-14T04:06:39;1.50;;;1.08;;
7487;SDS011;3785;52.260;4.728;2023-06-14T04:10:01;1.73;;;1.08;;
7487;SDS011;3785;52.260;4.728;2023-06-14T04:13:21;2.78;;;1.55;;
7487;SDS011;3785;52.260;4.728;2023-06-14T04:16:42;2.50;;;1.52;;
7487;SDS011;3785;52.260;4.728;2023-06-14T04:20:03;2.53;;;1.30;;
7487;SDS011;3785;52.260;4.728;2023-06-14T04:23:27;1.70;;;1.15;;
7487;SDS011;3785;52.260;4.728;2023-06-14T04:26:48;2.40;;;1.48;;
7487;SDS011;3785;52.260;4.728;2023-06-14T04:30:09;2.22;;;1.30;;
7487;SDS011;3785;52.260;4.728;2023-06-14T04:33:30;2.92;;;1.20;;
7487;SDS011;3785;52.260;4.728;2023-06-14T04:36:51;2.75;;;1.60;;
7487;SDS011;3785;52.260;4.728;2023-06-14T04:40:17;4.65;;;1.45;;
7487;SDS011;3785;52.260;4.728;2023-06-14T04:43:38;2.10;;;1.20;;
7487;SDS011;3785;52.260;4.728;2023-06-14T04:46:58;2.47;;;1.20;;
7487;SDS011;3785;52.260;4.728;2023-06-14T04:50:19;2.15;;;1.10;;
7487;SDS011;3785;52.260;4.728;2023-06-14T04:53:40;3.03;;;1.20;;
7487;SDS011;3785;52.260;4.728;2023-06-14T04:57:01;2.75;;;1.60;;
7487;SDS011;3785;52.260;4.728;2023-06-14T05:00:22;2.03;;;1.30;;
7487;SDS011;3785;52.260;4.728;2023-06-14T05:03:43;2.97;;;1.33;;
7487;SDS011;3785;52.260;4.728;2023-06-14T05:07:08;2.55;;;1.20;;
7487;SDS011;3785;52.260;4.728;2023-06-14T05:10:29;2.72;;;1.45;;
7487;SDS011;3785;52.260;4.728;2023-06-14T05:13:49;2.33;;;1.42;;
7487;SDS011;3785;52.260;4.728;2023-06-14T05:17:11;3.65;;;1.60;;
7487;SDS011;3785;52.260;4.728;2023-06-14T05:20:31;3.78;;;1.30;;
7487;SDS011;3785;52.260;4.728;2023-06-14T05:23:52;2.05;;;1.45;;
7487;SDS011;3785;52.260;4.728;2023-06-14T05:27:13;2.67;;;1.45;;
7487;SDS011;3785;52.260;4.728;2023-06-14T05:30:34;2.55;;;1.40;;
7487;SDS011;3785;52.260;4.728;2023-06-14T05:33:55;3.85;;;1.20;;
7487;SDS011;3785;52.260;4.728;2023-06-14T05:37:16;3.08;;;1.33;;
7487;SDS011;3785;52.260;4.728;2023-06-14T05:40:37;1.52;;;1.20;;
7487;SDS011;3785;52.260;4.728;2023-06-14T05:43:57;2.00;;;1.23;;
7487;SDS011;3785;52.260;4.728;2023-06-14T05:47:20;4.35;;;1.20;;
7487;SDS011;3785;52.260;4.728;2023-06-14T05:50:40;2.55;;;1.23;;
7487;SDS011;3785;52.260;4.728;2023-06-14T05:54:01;2.78;;;1.55;;
7487;SDS011;3785;52.260;4.728;2023-06-14T05:57:21;2.67;;;1.60;;
7487;SDS011;3785;52.260;4.728;2023-06-14T06:00:42;3.45;;;1.20;;
7487;SDS011;3785;52.260;4.728;2023-06-14T06:04:02;2.40;;;1.30;;
7487;SDS011;3785;52.260;4.728;2023-06-14T06:07:23;2.22;;;1.17;;
7487;SDS011;3785;52.260;4.728;2023-06-14T06:10:43;3.60;;;1.45;;
7487;SDS011;3785;52.260;4.728;2023-06-14T06:14:04;2.63;;;1.40;;
7487;SDS011;3785;52.260;4.728;2023-06-14T06:17:28;4.35;;;2.20;;
7487;SDS011;3785;52.260;4.728;2023-06-14T06:20:48;4.97;;;1.85;;
7487;SDS011;3785;52.260;4.728;2023-06-14T06:24:09;2.67;;;1.58;;
7487;SDS011;3785;52.260;4.728;2023-06-14T06:27:29;3.78;;;1.42;;
7487;SDS011;3785;52.260;4.728;2023-06-14T06:30:50;3.65;;;1.40;;
7487;SDS011;3785;52.260;4.728;2023-06-14T06:34:11;3.58;;;1.58;;
7487;SDS011;3785;52.260;4.728;2023-06-14T06:37:31;2.13;;;1.42;;
7487;SDS011;3785;52.260;4.728;2023-06-14T06:40:52;3.63;;;1.25;;
7487;SDS011;3785;52.260;4.728;2023-06-14T06:44:14;2.15;;;1.30;;
7487;SDS011;3785;52.260;4.728;2023-06-14T06:47:34;4.10;;;1.60;;
7487;SDS011;3785;52.260;4.728;2023-06-14T06:50:55;3.22;;;1.52;;
7487;SDS011;3785;52.260;4.728;2023-06-14T06:54:15;3.75;;;1.50;;
7487;SDS011;3785;52.260;4.728;2023-06-14T06:57:36;3.13;;;1.67;;
7487;SDS011;3785;52.260;4.728;2023-06-14T07:00:57;3.53;;;1.38;;
7487;SDS011;3785;52.260;4.728;2023-06-14T07:04:17;3.38;;;1.70;;
7487;SDS011;3785;52.260;4.728;2023-06-14T07:07:38;3.40;;;1.50;;
7487;SDS011;3785;52.260;4.728;2023-06-14T07:10:58;3.83;;;1.70;;
7487;SDS011;3785;52.260;4.728;2023-06-14T07:14:19;5.40;;;1.52;;
7487;SDS011;3785;52.260;4.728;2023-06-14T07:17:43;3.13;;;1.50;;
7487;SDS011;3785;52.260;4.728;2023-06-14T07:21:03;4.50;;;2.50;;
7487;SDS011;3785;52.260;4.728;2023-06-14T07:24:24;2.00;;;1.20;;
7487;SDS011;3785;52.260;4.728;2023-06-14T07:27:44;3.67;;;1.83;;
7487;SDS011;3785;52.260;4.728;2023-06-14T07:31:05;3.67;;;1.52;;
7487;SDS011;3785;52.260;4.728;2023-06-14T07:34:26;2.40;;;1.55;;
7487;SDS011;3785;52.260;4.728;2023-06-14T07:37:47;2.30;;;1.40;;
7487;SDS011;3785;52.260;4.728;2023-06-14T07:41:09;2.08;;;1.35;;
7487;SDS011;3785;52.260;4.728;2023-06-14T07:44:30;4.00;;;1.67;;
7487;SDS011;3785;52.260;4.728;2023-06-14T07:47:53;2.58;;;1.60;;
7487;SDS011;3785;52.260;4.728;2023-06-14T07:51:14;2.50;;;1.58;;
7487;SDS011;3785;52.260;4.728;2023-06-14T07:54:34;1.85;;;1.45;;
7487;SDS011;3785;52.260;4.728;2023-06-14T07:57:56;3.13;;;1.60;;
7487;SDS011;3785;52.260;4.728;2023-06-14T08:01:16;1.90;;;1.42;;
7487;SDS011;3785;52.260;4.728;2023-06-14T08:04:38;2.40;;;1.67;;
7487;SDS011;3785;52.260;4.728;2023-06-14T08:07:58;2.88;;;1.65;;
7487;SDS011;3785;52.260;4.728;2023-06-14T08:11:19;3.58;;;1.45;;
7487;SDS011;3785;52.260;4.728;2023-06-14T08:14:41;5.30;;;1.73;;
7487;SDS011;3785;52.260;4.728;2023-06-14T08:18:02;2.22;;;1.40;;
7487;SDS011;3785;52.260;4.728;2023-06-14T08:21:23;2.17;;;1.40;;
7487;SDS011;3785;52.260;4.728;2023-06-14T08:24:43;3.60;;;1.55;;
7487;SDS011;3785;52.260;4.728;2023-06-14T08:28:04;4.07;;;1.75;;
7487;SDS011;3785;52.260;4.728;2023-06-14T08:31:25;2.63;;;1.88;;
7487;SDS011;3785;52.260;4.728;2023-06-14T08:34:47;2.63;;;1.60;;
7487;SDS011;3785;52.260;4.728;2023-06-14T08:38:08;5.55;;;1.80;;
7487;SDS011;3785;52.260;4.728;2023-06-14T08:41:30;3.05;;;1.88;;
7487;SDS011;3785;52.260;4.728;2023-06-14T08:44:51;2.83;;;1.50;;
7487;SDS011;3785;52.260;4.728;2023-06-14T08:48:11;2.33;;;1.50;;
7487;SDS011;3785;52.260;4.728;2023-06-14T08:51:35;4.22;;;1.75;;
7487;SDS011;3785;52.260;4.728;2023-06-14T08:54:56;1.85;;;1.33;;
7487;SDS011;3785;52.260;4.728;2023-06-14T08:58:17;2.78;;;1.50;;
7487;SDS011;3785;52.260;4.728;2023-06-14T09:01:38;2.75;;;1.30;;
7487;SDS011;3785;52.260;4.728;2023-06-14T09:04:59;2.35;;;1.40;;
7487;SDS011;3785;52.260;4.728;2023-06-14T09:08:20;3.00;;;1.60;;
7487;SDS011;3785;52.260;4.728;2023-06-14T09:11:42;4.22;;;1.67;;
7487;SDS011;3785;52.260;4.728;2023-06-14T09:15:03;2.78;;;1.38;;
7487;SDS011;3785;52.260;4.728;2023-06-14T09:21:59;2.85;;;1.42;;
7487;SDS011;3785;52.260;4.728;2023-06-14T09:25:20;2.38;;;1.48;;
7487;SDS011;3785;52.260;4.728;2023-06-14T09:28:44;3.50;;;1.40;;
7487;SDS011;3785;52.260;4.728;2023-06-14T09:32:08;2.50;;;1.42;;
7487;SDS011;3785;52.260;4.728;2023-06-14T09:35:31;1.60;;;1.13;;
7487;SDS011;3785;52.260;4.728;2023-06-14T09:38:55;3.42;;;1.50;;
7487;SDS011;3785;52.260;4.728;2023-06-14T09:42:20;4.18;;;1.27;;
7487;SDS011;3785;52.260;4.728;2023-06-14T09:45:41;1.40;;;1.10;;
7487;SDS011;3785;52.260;4.728;2023-06-14T09:49:05;1.60;;;1.05;;
7487;SDS011;3785;52.260;4.728;2023-06-14T09:52:26;1.58;;;1.08;;
7487;SDS011;3785;52.260;4.728;2023-06-14T09:55:47;1.48;;;1.00;;
7487;SDS011;3785;52.260;4.728;2023-06-14T09:59:10;2.03;;;1.02;;
7487;SDS011;3785;52.260;4.728;2023-06-14T10:02:34;2.75;;;1.10;;
7487;SDS011;3785;52.260;4.728;2023-06-14T10:05:58;2.25;;;1.15;;
7487;SDS011;3785;52.260;4.728;2023-06-14T10:09:21;2.50;;;1.05;;
7487;SDS011;3785;52.260;4.728;2023-06-14T10:12:42;3.45;;;0.90;;
7487;SDS011;3785;52.260;4.728;2023-06-14T10:16:17;1.63;;;0.98;;
7487;SDS011;3785;52.260;4.728;2023-06-14T10:19:42;1.90;;;0.90;;
7487;SDS011;3785;52.260;4.728;2023-06-14T10:23:16;1.35;;;0.85;;
7487;SDS011;3785;52.260;4.728;2023-06-14T10:26:49;1.30;;;0.90;;
7487;SDS011;3785;52.260;4.728;2023-06-14T10:30:14;1.60;;;0.93;;
7487;SDS011;3785;52.260;4.728;2023-06-14T10:33:36;2.63;;;1.17;;
7487;SDS011;3785;52.260;4.728;2023-06-14T10:40:30;1.58;;;0.95;;
7487;SDS011;3785;52.260;4.728;2023-06-14T10:43:51;2.38;;;1.20;;
7487;SDS011;3785;52.260;4.728;2023-06-14T10:50:44;1.48;;;0.90;;
7487;SDS011;3785;52.260;4.728;2023-06-14T10:54:11;2.17;;;1.10;;
7487;SDS011;3785;52.260;4.728;2023-06-14T10:57:35;1.70;;;0.80;;
7487;SDS011;3785;52.260;4.728;2023-06-14T11:01:06;5.05;;;0.90;;
7487;SDS011;3785;52.260;4.728;2023-06-14T11:04:31;1.88;;;1.00;;
7487;SDS011;3785;52.260;4.728;2023-06-14T11:11:41;1.83;;;0.95;;
7487;SDS011;3785;52.260;4.728;2023-06-14T11:15:04;1.80;;;0.90;;
7487;SDS011;3785;52.260;4.728;2023-06-14T11:18:25;1.77;;;1.00;;
7487;SDS011;3785;52.260;4.728;2023-06-14T11:21:49;2.00;;;1.17;;
7487;SDS011;3785;52.260;4.728;2023-06-14T11:25:10;1.73;;;1.05;;
7487;SDS011;3785;52.260;4.728;2023-06-14T11:28:38;1.30;;;0.80;;
7487;SDS011;3785;52.260;4.728;2023-06-14T11:32:00;1.60;;;0.85;;
7487;SDS011;3785;52.260;4.728;2023-06-14T11:35:24;1.42;;;0.82;;
7487;SDS011;3785;52.260;4.728;2023-06-14T11:38:45;4.07;;;0.95;;
7487;SDS011;3785;52.260;4.728;2023-06-14T11:42:06;1.90;;;0.90;;
7487;SDS011;3785;52.260;4.728;2023-06-14T11:45:27;1.75;;;1.02;;
7487;SDS011;3785;52.260;4.728;2023-06-14T11:48:47;1.73;;;1.00;;
7487;SDS011;3785;52.260;4.728;2023-06-14T11:52:08;1.38;;;0.80;;
7487;SDS011;3785;52.260;4.728;2023-06-14T11:55:28;2.05;;;1.00;;
7487;SDS011;3785;52.260;4.728;2023-06-14T11:58:49;1.92;;;0.90;;
7487;SDS011;3785;52.260;4.728;2023-06-14T12:02:13;1.52;;;0.98;;
7487;SDS011;3785;52.260;4.728;2023-06-14T12:05:34;1.52;;;0.90;;
7487;SDS011;3785;52.260;4.728;2023-06-14T12:08:55;3.53;;;1.00;;
7487;SDS011;3785;52.260;4.728;2023-06-14T12:12:16;2.83;;;1.13;;
7487;SDS011;3785;52.260;4.728;2023-06-14T12:15:37;1.10;;;0.70;;
7487;SDS011;3785;52.260;4.728;2023-06-14T12:18:59;1.40;;;0.82;;
7487;SDS011;3785;52.260;4.728;2023-06-14T12:22:21;3.28;;;1.10;;
7487;SDS011;3785;52.260;4.728;2023-06-14T12:25:41;1.10;;;0.70;;
7487;SDS011;3785;52.260;4.728;2023-06-14T12:29:04;2.05;;;0.90;;
7487;SDS011;3785;52.260;4.728;2023-06-14T12:32:25;1.42;;;0.90;;
7487;SDS011;3785;52.260;4.728;2023-06-14T12:35:46;1.70;;;0.95;;
7487;SDS011;3785;52.260;4.728;2023-06-14T12:39:06;2.53;;;1.10;;
7487;SDS011;3785;52.260;4.728;2023-06-14T12:42:28;1.40;;;0.75;;
7487;SDS011;3785;52.260;4.728;2023-06-14T12:45:48;1.77;;;0.80;;
7487;SDS011;3785;52.260;4.728;2023-06-14T12:49:10;1.50;;;0.80;;
7487;SDS011;3785;52.260;4.728;2023-06-14T12:52:31;1.50;;;0.90;;
7487;SDS011;3785;52.260;4.728;2023-06-14T12:55:51;1.55;;;0.80;;
7487;SDS011;3785;52.260;4.728;2023-06-14T12:59:12;1.63;;;1.00;;
7487;SDS011;3785;52.260;4.728;2023-06-14T13:02:32;1.60;;;1.30;;
7487;SDS011;3785;52.260;4.728;2023-06-14T13:05:53;2.75;;;1.00;;
7487;SDS011;3785;52.260;4.728;2023-06-14T13:09:14;3.45;;;0.90;;
7487;SDS011;3785;52.260;4.728;2023-06-14T13:12:35;1.08;;;0.70;;
7487;SDS011;3785;52.260;4.728;2023-06-14T13:15:56;1.40;;;0.95;;
7487;SDS011;3785;52.260;4.728;2023-06-14T13:19:16;1.90;;;1.10;;
7487;SDS011;3785;52.260;4.728;2023-06-14T13:22:37;1.88;;;1.05;;
7487;SDS011;3785;52.260;4.728;2023-06-14T13:25:58;1.27;;;0.77;;
7487;SDS011;3785;52.260;4.728;2023-06-14T13:29:19;1.75;;;1.00;;
7487;SDS011;3785;52.260;4.728;2023-06-14T13:32:40;2.65;;;1.00;;
7487;SDS011;3785;52.260;4.728;2023-06-14T13:36:00;1.58;;;0.93;;
7487;SDS011;3785;52.260;4.728;2023-06-14T13:39:21;1.77;;;1.08;;
7487;SDS011;3785;52.260;4.728;2023-06-14T13:42:42;1.52;;;0.90;;
7487;SDS011;3785;52.260;4.728;2023-06-14T13:46:03;1.40;;;0.90;;
7487;SDS011;3785;52.260;4.728;2023-06-14T13:49:23;1.42;;;0.80;;
7487;SDS011;3785;52.260;4.728;2023-06-14T13:52:44;2.17;;;0.90;;
7487;SDS011;3785;52.260;4.728;2023-06-14T13:56:04;1.60;;;0.90;;
7487;SDS011;3785;52.260;4.728;2023-06-14T13:59:25;1.40;;;0.85;;
7487;SDS011;3785;52.260;4.728;2023-06-14T14:02:46;2.78;;;0.90;;
7487;SDS011;3785;52.260;4.728;2023-06-14T14:06:06;2.15;;;1.02;;
7487;SDS011;3785;52.260;4.728;2023-06-14T14:09:27;2.33;;;1.13;;
7487;SDS011;3785;52.260;4.728;2023-06-14T14:12:47;1.50;;;0.82;;
7487;SDS011;3785;52.260;4.728;2023-06-14T14:16:08;1.23;;;0.80;;
7487;SDS011;3785;52.260;4.728;2023-06-14T14:19:28;1.35;;;0.80;;
7487;SDS011;3785;52.260;4.728;2023-06-14T14:22:49;1.63;;;0.75;;
7487;SDS011;3785;52.260;4.728;2023-06-14T14:26:09;2.40;;;1.13;;
7487;SDS011;3785;52.260;4.728;2023-06-14T14:29:30;2.10;;;1.10;;
7487;SDS011;3785;52.260;4.728;2023-06-14T14:32:51;1.77;;;1.00;;
7487;SDS011;3785;52.260;4.728;2023-06-14T14:36:12;1.55;;;0.88;;
7487;SDS011;3785;52.260;4.728;2023-06-14T14:39:33;1.92;;;0.88;;
7487;SDS011;3785;52.260;4.728;2023-06-14T14:42:54;1.23;;;0.68;;
7487;SDS011;3785;52.260;4.728;2023-06-14T14:46:15;1.48;;;1.17;;
7487;SDS011;3785;52.260;4.728;2023-06-14T14:49:36;2.58;;;1.10;;
7487;SDS011;3785;52.260;4.728;2023-06-14T14:52:57;1.60;;;0.70;;
7487;SDS011;3785;52.260;4.728;2023-06-14T14:56:17;1.42;;;0.95;;
7487;SDS011;3785;52.260;4.728;2023-06-14T14:59:38;1.38;;;0.80;;
7487;SDS011;3785;52.260;4.728;2023-06-14T15:03:03;1.95;;;1.20;;
7487;SDS011;3785;52.260;4.728;2023-06-14T15:06:24;1.67;;;0.93;;
7487;SDS011;3785;52.260;4.728;2023-06-14T15:09:48;1.23;;;0.70;;
7487;SDS011;3785;52.260;4.728;2023-06-14T15:13:11;1.60;;;0.95;;
7487;SDS011;3785;52.260;4.728;2023-06-14T15:16:35;1.40;;;0.70;;
7487;SDS011;3785;52.260;4.728;2023-06-14T15:19:56;1.73;;;0.90;;
7487;SDS011;3785;52.260;4.728;2023-06-14T15:23:17;1.10;;;0.70;;
7487;SDS011;3785;52.260;4.728;2023-06-14T15:26:39;1.55;;;0.90;;
7487;SDS011;3785;52.260;4.728;2023-06-14T15:30:00;1.58;;;1.00;;
7487;SDS011;3785;52.260;4.728;2023-06-14T15:33:20;1.38;;;0.75;;
7487;SDS011;3785;52.260;4.728;2023-06-14T15:36:41;1.30;;;0.90;;
7487;SDS011;3785;52.260;4.728;2023-06-14T15:40:02;1.67;;;0.90;;
7487;SDS011;3785;52.260;4.728;2023-06-14T15:43:22;2.25;;;0.90;;
7487;SDS011;3785;52.260;4.728;2023-06-14T15:46:43;1.05;;;0.65;;
7487;SDS011;3785;52.260;4.728;2023-06-14T15:50:04;1.48;;;0.80;;
7487;SDS011;3785;52.260;4.728;2023-06-14T15:53:27;1.60;;;0.88;;
7487;SDS011;3785;52.260;4.728;2023-06-14T15:56:48;1.30;;;0.80;;
7487;SDS011;3785;52.260;4.728;2023-06-14T16:00:08;1.70;;;1.10;;
7487;SDS011;3785;52.260;4.728;2023-06-14T16:03:29;1.20;;;0.80;;
7487;SDS011;3785;52.260;4.728;2023-06-14T16:06:50;1.67;;;0.93;;
7487;SDS011;3785;52.260;4.728;2023-06-14T16:10:10;1.45;;;0.70;;
7487;SDS011;3785;52.260;4.728;2023-06-14T16:13:31;1.23;;;0.73;;
7487;SDS011;3785;52.260;4.728;2023-06-14T16:16:51;1.35;;;0.80;;
7487;SDS011;3785;52.260;4.728;2023-06-14T16:20:12;1.45;;;0.77;;
7487;SDS011;3785;52.260;4.728;2023-06-14T16:23:33;1.90;;;0.90;;
7487;SDS011;3785;52.260;4.728;2023-06-14T16:26:54;1.63;;;0.80;;
7487;SDS011;3785;52.260;4.728;2023-06-14T16:30:15;1.20;;;0.60;;
7487;SDS011;3785;52.260;4.728;2023-06-14T16:33:35;1.20;;;0.70;;
7487;SDS011;3785;52.260;4.728;2023-06-14T16:36:56;1.63;;;0.70;;
7487;SDS011;3785;52.260;4.728;2023-06-14T16:40:17;2.17;;;0.80;;
7487;SDS011;3785;52.260;4.728;2023-06-14T16:43:37;1.17;;;0.70;;
7487;SDS011;3785;52.260;4.728;2023-06-14T16:46:58;1.83;;;0.90;;
7487;SDS011;3785;52.260;4.728;2023-06-14T16:50:20;1.70;;;0.90;;
7487;SDS011;3785;52.260;4.728;2023-06-14T16:53:41;3.30;;;0.82;;
7487;SDS011;3785;52.260;4.728;2023-06-14T16:57:02;1.15;;;0.77;;
7487;SDS011;3785;52.260;4.728;2023-06-14T17:00:22;1.20;;;0.90;;
7487;SDS011;3785;52.260;4.728;2023-06-14T17:03:43;2.15;;;0.70;;
7487;SDS011;3785;52.260;4.728;2023-06-14T17:07:04;2.17;;;0.73;;
7487;SDS011;3785;52.260;4.728;2023-06-14T17:10:25;1.20;;;0.75;;
7487;SDS011;3785;52.260;4.728;2023-06-14T17:13:46;2.75;;;0.73;;
7487;SDS011;3785;52.260;4.728;2023-06-14T17:17:07;1.20;;;0.68;;
7487;SDS011;3785;52.260;4.728;2023-06-14T17:20:27;2.40;;;0.80;;
7487;SDS011;3785;52.260;4.728;2023-06-14T17:23:49;1.17;;;0.80;;
7487;SDS011;3785;52.260;4.728;2023-06-14T17:27:10;1.52;;;0.90;;
7487;SDS011;3785;52.260;4.728;2023-06-14T17:30:31;1.60;;;0.90;;
7487;SDS011;3785;52.260;4.728;2023-06-14T17:33:51;1.83;;;0.80;;
7487;SDS011;3785;52.260;4.728;2023-06-14T17:37:12;1.52;;;0.90;;
7487;SDS011;3785;52.260;4.728;2023-06-14T17:40:32;1.00;;;0.65;;
7487;SDS011;3785;52.260;4.728;2023-06-14T17:43:54;2.20;;;0.82;;
7487;SDS011;3785;52.260;4.728;2023-06-14T17:47:14;1.40;;;0.65;;
7487;SDS011;3785;52.260;4.728;2023-06-14T17:50:35;1.33;;;0.90;;
7487;SDS011;3785;52.260;4.728;2023-06-14T17:53:58;1.95;;;0.73;;
7487;SDS011;3785;52.260;4.728;2023-06-14T17:57:19;1.52;;;0.70;;
7487;SDS011;3785;52.260;4.728;2023-06-14T18:00:40;1.30;;;0.70;;
7487;SDS011;3785;52.260;4.728;2023-06-14T18:04:01;1.48;;;0.70;;
7487;SDS011;3785;52.260;4.728;2023-06-14T18:07:21;1.45;;;0.75;;
7487;SDS011;3785;52.260;4.728;2023-06-14T18:10:42;1.40;;;0.85;;
7487;SDS011;3785;52.260;4.728;2023-06-14T18:14:03;1.20;;;0.70;;
7487;SDS011;3785;52.260;4.728;2023-06-14T18:17:23;1.55;;;0.75;;
7487;SDS011;3785;52.260;4.728;2023-06-14T18:20:44;1.35;;;0.70;;
7487;SDS011;3785;52.260;4.728;2023-06-14T18:24:05;1.40;;;0.80;;
7487;SDS011;3785;52.260;4.728;2023-06-14T18:27:25;1.60;;;0.60;;
7487;SDS011;3785;52.260;4.728;2023-06-14T18:30:46;1.80;;;0.80;;
7487;SDS011;3785;52.260;4.728;2023-06-14T18:34:06;1.40;;;0.98;;
7487;SDS011;3785;52.260;4.728;2023-06-14T18:37:29;2.55;;;0.73;;
7487;SDS011;3785;52.260;4.728;2023-06-14T18:40:49;1.42;;;0.88;;
7487;SDS011;3785;52.260;4.728;2023-06-14T18:44:11;1.27;;;0.90;;
7487;SDS011;3785;52.260;4.728;2023-06-14T18:47:32;1.27;;;0.70;;
7487;SDS011;3785;52.260;4.728;2023-06-14T18:50:52;1.67;;;0.95;;
7487;SDS011;3785;52.260;4.728;2023-06-14T18:54:13;1.30;;;0.70;;
7487;SDS011;3785;52.260;4.728;2023-06-14T18:57:33;1.50;;;0.80;;
7487;SDS011;3785;52.260;4.728;2023-06-14T19:00:54;1.90;;;0.50;;
7487;SDS011;3785;52.260;4.728;2023-06-14T19:04:14;1.65;;;0.90;;
7487;SDS011;3785;52.260;4.728;2023-06-14T19:07:35;2.38;;;0.60;;
7487;SDS011;3785;52.260;4.728;2023-06-14T19:10:55;1.80;;;1.00;;
7487;SDS011;3785;52.260;4.728;2023-06-14T19:14:16;1.52;;;0.90;;
7487;SDS011;3785;52.260;4.728;2023-06-14T19:17:37;2.00;;;0.93;;
7487;SDS011;3785;52.260;4.728;2023-06-14T19:20:57;2.45;;;0.70;;
7487;SDS011;3785;52.260;4.728;2023-06-14T19:24:18;1.13;;;0.70;;
7487;SDS011;3785;52.260;4.728;2023-06-14T19:27:38;2.13;;;0.82;;
7487;SDS011;3785;52.260;4.728;2023-06-14T19:30:59;2.03;;;0.77;;
7487;SDS011;3785;52.260;4.728;2023-06-14T19:34:19;1.38;;;0.68;;
7487;SDS011;3785;52.260;4.728;2023-06-14T19:37:40;1.92;;;0.70;;
7487;SDS011;3785;52.260;4.728;2023-06-14T19:41:01;0.85;;;0.80;;
7487;SDS011;3785;52.260;4.728;2023-06-14T19:44:21;1.42;;;0.80;;
7487;SDS011;3785;52.260;4.728;2023-06-14T19:47:42;2.13;;;0.93;;
7487;SDS011;3785;52.260;4.728;2023-06-14T19:51:04;1.33;;;0.80;;
7487;SDS011;3785;52.260;4.728;2023-06-14T19:54:26;1.27;;;0.68;;
7487;SDS011;3785;52.260;4.728;2023-06-14T19:57:46;1.63;;;0.73;;
7487;SDS011;3785;52.260;4.728;2023-06-14T20:01:07;2.78;;;0.73;;
7487;SDS011;3785;52.260;4.728;2023-06-14T20:04:28;1.85;;;0.90;;
7487;SDS011;3785;52.260;4.728;2023-06-14T20:07:48;0.93;;;0.50;;
7487;SDS011;3785;52.260;4.728;2023-06-14T20:11:09;0.85;;;0.60;;
7487;SDS011;3785;52.260;4.728;2023-06-14T20:14:30;2.50;;;0.88;;
7487;SDS011;3785;52.260;4.728;2023-06-14T20:17:51;1.33;;;0.80;;
7487;SDS011;3785;52.260;4.728;2023-06-14T20:21:12;1.77;;;0.70;;
7487;SDS011;3785;52.260;4.728;2023-06-14T20:24:32;1.45;;;0.70;;
7487;SDS011;3785;52.260;4.728;2023-06-14T20:27:53;1.25;;;0.82;;
7487;SDS011;3785;52.260;4.728;2023-06-14T20:31:14;1.98;;;0.77;;
7487;SDS011;3785;52.260;4.728;2023-06-14T20:34:38;0.98;;;0.77;;
7487;SDS011;3785;52.260;4.728;2023-06-14T20:37:58;1.25;;;0.70;;
7487;SDS011;3785;52.260;4.728;2023-06-14T20:41:19;0.98;;;0.65;;
7487;SDS011;3785;52.260;4.728;2023-06-14T20:44:40;1.13;;;0.65;;
7487;SDS011;3785;52.260;4.728;2023-06-14T20:48:01;1.05;;;0.80;;
7487;SDS011;3785;52.260;4.728;2023-06-14T20:51:21;1.77;;;0.60;;
7487;SDS011;3785;52.260;4.728;2023-06-14T20:54:42;1.88;;;0.70;;
7487;SDS011;3785;52.260;4.728;2023-06-14T20:58:04;2.45;;;1.10;;
7487;SDS011;3785;52.260;4.728;2023-06-14T21:01:25;2.60;;;0.82;;
7487;SDS011;3785;52.260;4.728;2023-06-14T21:04:52;1.23;;;0.80;;